Latest Weather Observations for Camden

IDN60901

Issued at 6:11 pm EST Friday 30 September 2016 (issued every 10 minutes, with the page automatically refreshed every 10 minutes)

About weather observations | Map of Sydney area stations | Latest observations for Sydney area | Other Formats
Station Details ID: 068192 Name: CAMDEN AIRPORT AWS Lat: -34.04 Lon: 150.69 Height: 73.9 m
Data from the previous 72 hours. | See also: Recent months at Camden
Date/Time
EST
Temp
°C
App
Temp
°C
Dew
Point
°C
Rel
Hum
%
Delta-T
°C
Wind Press
QNH
hPa
Press
MSL
hPa
Rain since
9am
mm
Dir  Spd
km/h
Gust
km/h
Spd
kts
Gust
kts
30/06:00pm 13.7 9.6 4.3 53 4.4 NW 15 22 8 12 999.8 999.8 0.0
30/05:30pm 14.7 10.2 4.1 49 4.9 NW 17 24 9 13 999.3 999.3 0.0
30/05:00pm 15.2 8.9 4.0 47 5.2 NW 26 41 14 22 999.1 999.1 0.0
30/04:40pm 16.0 9.3 3.8 44 5.7 NW 28 48 15 26 998.7 998.7 0.0
30/04:30pm 16.3 9.7 4.4 45 5.6 NW 28 39 15 21 998.5 998.5 0.0
30/04:00pm 16.9 10.2 3.9 42 6.1 NW 28 41 15 22 998.1 998.1 0.0
30/03:30pm 16.7 9.4 2.7 39 6.4 NW 30 41 16 22 997.7 997.7 0.0
30/03:00pm 16.7 7.7 2.7 39 6.4 NW 39 61 21 33 997.3 997.3 0.0
30/02:57pm 16.9 8.7 2.5 38 6.5 NW 35 56 19 30 997.6 997.6 0.0
30/02:30pm 17.1 9.7 3.8 41 6.2 NW 32 48 17 26 997.5 997.5 0.0
30/02:00pm 16.6 8.1 3.0 40 6.3 NW 37 50 20 27 997.6 997.6 0.0
30/01:35pm 18.2 10.4 4.7 41 6.5 NNW 35 56 19 30 997.6 997.6 0.0
30/01:30pm 17.6 10.6 5.9 46 5.7 NNW 32 44 17 24 997.7 997.7 0.0
30/01:02pm 16.1 8.7 4.2 45 5.6 NNW 32 50 17 27 997.8 997.8 0.0
30/01:00pm 16.3 9.4 4.4 45 5.6 NNW 30 46 16 25 997.8 997.8 0.0
30/12:30pm 16.5 9.0 4.5 45 5.7 NNW 33 46 18 25 997.9 997.9 0.0
30/12:00pm 15.8 9.3 4.5 47 5.3 NNW 28 46 15 25 998.2 998.2 0.0
30/11:59am 15.9 9.5 5.2 49 5.1 NW 28 46 15 25 998.2 998.2 0.0
30/11:30am 15.8 8.8 4.2 46 5.4 NNW 30 37 16 20 998.3 998.3 0.0
30/11:00am 17.2 10.4 5.2 45 5.8 NNW 30 37 16 20 998.3 998.3 0.0
30/10:30am 18.2 11.2 5.8 44 6.1 NNW 32 43 17 23 998.3 998.3 0.0
30/10:00am 17.4 11.7 4.7 43 6.1 NW 24 33 13 18 998.2 998.2 0.0
30/09:30am 15.5 10.4 3.9 46 5.4 NNW 20 28 11 15 998.2 998.2 0.0
30/09:00am 15.4 10.5 4.2 47 5.2 NNW 19 26 10 14 998.5 998.5 1.6
30/08:30am 14.8 9.8 4.8 51 4.7 NNW 20 24 11 13 998.5 998.5 1.6
30/08:00am 14.0 9.1 4.0 51 4.6 NNW 19 26 10 14 998.4 998.4 1.6
30/07:30am 13.5 8.3 3.6 51 4.5 NNW 20 28 11 15 998.1 998.1 1.6
30/07:00am 14.2 9.1 3.9 50 4.8 N 20 26 11 14 997.9 997.9 1.6
30/06:30am 12.7 7.4 3.1 52 4.3 N 20 24 11 13 997.6 997.6 1.6
30/06:00am 11.8 6.5 2.8 54 4.0 N 20 28 11 15 997.4 997.4 1.6
30/05:30am 11.6 6.5 2.9 55 3.8 N 19 28 10 15 997.1 997.1 1.6
30/05:00am 11.6 6.9 2.9 55 3.8 N 17 20 9 11 997.1 997.1 1.6
30/04:30am 11.3 6.0 3.1 57 3.6 N 20 26 11 14 997.0 996.9 1.6
30/04:00am 11.3 6.2 3.1 57 3.6 N 19 24 10 13 996.9 996.8 1.6
30/03:30am 10.2 6.6 2.8 60 3.2 N 11 13 6 7 997.4 997.4 1.6
30/03:00am 11.7 6.3 2.5 53 4.0 NNW 20 26 11 14 997.2 997.2 1.6
30/02:30am 11.1 6.3 2.4 55 3.7 NNW 17 20 9 11 997.5 997.5 1.6
30/02:00am 11.1 6.3 2.4 55 3.8 N 17 19 9 10 998.1 998.1 1.6
30/01:30am 11.4 7.7 2.2 53 4.0 N 11 13 6 7 998.6 998.6 1.6
30/01:00am 12.8 6.9 1.5 46 4.9 NNW 22 39 12 21 998.7 998.7 1.6
30/12:30am 13.9 7.7 1.9 44 5.2 NW 24 33 13 18 998.8 998.8 1.6
30/12:00am 13.6 7.4 2.2 46 5.0 NW 24 35 13 19 998.8 998.8 1.6
 
Date/Time
EST
Temp
°C
App
Temp
°C
Dew
Point
°C
Rel
Hum
%
Delta-T
°C
Wind Press
QNH
hPa
Press
MSL
hPa
Rain since
9am
mm
Dir  Spd
km/h
Gust
km/h
Spd
kts
Gust
kts
29/11:30pm 13.5 8.1 2.7 48 4.8 NW 20 28 11 15 998.7 998.7 1.6
29/11:00pm 13.1 8.7 2.9 50 4.6 NW 15 20 8 11 998.6 998.6 1.6
29/10:30pm 13.6 8.5 2.8 48 4.8 NW 19 28 10 15 998.4 998.4 1.6
29/10:00pm 14.0 9.6 2.9 47 5.0 NNW 15 30 8 16 998.1 998.1 1.6
29/09:30pm 14.5 7.6 2.7 45 5.3 NW 28 46 15 25 998.3 998.3 1.6
29/09:25pm 14.3 7.5 2.9 46 5.1 NW 28 46 15 25 998.3 998.3 1.6
29/09:00pm 11.4 8.2 5.3 66 2.8 NNW 11 32 6 17 998.0 998.0 1.6
29/08:30pm 10.4 8.0 5.4 71 2.3 N 7 11 4 6 997.5 997.5 1.6
29/08:00pm 10.8 8.6 5.3 69 2.5 N 6 17 3 9 997.2 997.2 1.6
29/07:30pm 12.4 9.4 5.8 64 3.1 NNW 11 15 6 8 997.1 997.1 1.6
29/07:00pm 12.6 9.9 5.5 62 3.3 NW 9 11 5 6 996.7 996.6 1.6
29/06:30pm 14.8 11.8 4.2 49 4.9 WNW 9 11 5 6 996.1 996.0 1.6
29/06:00pm 16.4 12.1 3.5 42 6.0 NW 15 20 8 11 995.7 995.6 1.6
29/05:30pm 17.9 13.3 3.8 39 6.6 NW 17 26 9 14 995.3 995.2 1.6
29/05:00pm 19.2 11.8 2.1 32 7.9 NW 30 44 16 24 995.1 995.0 1.6
29/04:30pm 19.9 12.7 3.2 33 7.9 NW 30 43 16 23 994.1 994.0 1.6
29/04:00pm 20.5 13.0 3.7 33 8.1 WNW 32 46 17 25 993.9 993.8 1.6
29/03:54pm 20.6 13.8 3.3 32 8.2 NW 28 43 15 23 993.9 993.8 1.6
29/03:30pm 20.8 18.3 11.2 54 5.3 NNW 15 20 8 11 993.5 993.4 1.6
29/03:00pm 20.2 18.3 12.9 63 4.2 N 15 20 8 11 993.7 993.6 1.6
29/02:30pm 19.0 16.9 13.6 71 3.1 N 17 28 9 15 994.2 994.1 1.6
29/02:00pm 17.1 16.5 13.4 79 2.1 N 9 13 5 7 994.6 994.5 1.6
29/01:30pm 16.6 15.4 15.0 90 0.9 NNW 15 20 8 11 995.4 995.3 1.6
29/01:00pm 15.9 12.5 12.6 81 1.8 N 22 32 12 17 995.5 995.4 0.4
29/12:30pm 17.0 14.0 11.9 72 2.8 N 19 26 10 14 996.4 996.3 0.2
29/12:21pm 16.5 13.1 11.4 72 2.8 N 20 24 11 13 996.4 996.3 0.2
29/12:10pm 15.8 12.5 11.0 73 2.6 NNE 19 28 10 15 996.5 996.4 0.2
29/12:00pm 16.4 13.7 11.8 74 2.5 N 17 22 9 12 996.7 996.6 0.2
29/11:30am 14.6 12.9 11.2 80 1.8 NE 11 19 6 10 997.5 997.5 0.2
29/11:00am 12.6 11.8 11.2 91 0.7 SE 6 7 3 4 998.5 998.5 0.2
29/10:30am 11.6 10.6 10.3 92 0.7 S 6 7 3 4 999.1 999.1 0.2
29/10:00am 11.0 11.1 10.1 94 0.5 CALM 0 6 0 3 1000.0 1000.0 0.2
29/09:30am 10.6 9.3 10.1 97 0.3 SSE 7 9 4 5 1000.3 1000.3 0.0
29/09:00am 10.2 9.4 9.6 96 0.3 E 4 7 2 4 1000.7 1000.7 4.0
29/08:59am 10.3 9.5 9.8 97 0.3 ENE 4 7 2 4 1000.7 1000.7 4.0
29/08:41am 10.0 9.8 9.2 95 0.4 CALM 0 0 0 0 1001.2 1001.2 3.4
29/08:30am 9.9 9.7 9.1 95 0.4 CALM 0 0 0 0 1001.5 1001.4 2.8
29/08:00am 9.7 9.5 9.1 96 0.3 CALM 0 6 0 3 1001.6 1001.5 2.2
29/07:39am 9.5 8.0 9.0 97 0.2 WNW 7 9 4 5 1001.8 1001.7 2.0
29/07:30am 9.4 7.8 8.9 97 0.2 WSW 7 9 4 5 1002.0 1001.9 1.8
29/07:12am 9.0 6.9 8.4 96 0.3 SSE 9 13 5 7 1001.6 1001.5 1.4
29/07:00am 9.1 7.9 8.2 94 0.4 ESE 4 9 2 5 1001.9 1001.8 0.8
29/06:30am 9.0 8.5 7.9 93 0.5 CALM 0 4 0 2 1002.5 1002.4 0.0
29/06:00am 8.6 8.0 7.5 93 0.5 CALM 0 0 0 0 1002.4 1002.3 0.0
29/05:30am 8.4 7.8 7.3 93 0.5 CALM 0 0 0 0 1003.2 1003.1 0.0
29/05:00am 8.2 7.5 7.0 92 0.6 CALM 0 0 0 0 1003.4 1003.3 0.0
29/04:30am 7.9 7.1 6.5 91 0.6 CALM 0 0 0 0 1003.6 1003.5 0.0
29/04:00am 7.7 6.9 6.5 92 0.6 CALM 0 0 0 0 1004.1 1004.0 0.0
29/03:30am 7.4 5.4 6.3 93 0.5 SSW 6 7 3 4 1004.5 1004.4 0.0
29/03:00am 7.4 6.6 6.5 94 0.4 CALM 0 7 0 4 1005.2 1005.1 0.0
29/02:30am 7.2 5.3 6.6 96 0.3 WSW 6 7 3 4 1005.8 1005.7 0.0
29/02:00am 6.9 6.1 6.3 96 0.3 CALM 0 0 0 0 1006.3 1006.2 0.0
29/01:30am 6.3 4.5 5.6 95 0.3 S 4 7 2 4 1007.4 1007.3 0.0
29/01:00am 6.3 4.5 5.4 94 0.4 SW 4 9 2 5 1007.9 1007.8 0.0
29/12:30am 6.9 5.9 5.4 90 0.7 CALM 0 0 0 0 1008.3 1008.2 0.0
29/12:00am 7.3 6.4 6.2 93 0.5 CALM 0 0 0 0 1008.7 1008.7 0.0
 
Date/Time
EST
Temp
°C
App
Temp
°C
Dew
Point
°C
Rel
Hum
%
Delta-T
°C
Wind Press
QNH
hPa
Press
MSL
hPa
Rain since
9am
mm
Dir  Spd
km/h
Gust
km/h
Spd
kts
Gust
kts
28/11:30pm 7.1 5.0 5.6 90 0.7 W 6 9 3 5 1009.0 1009.0 0.0
28/11:00pm 8.3 7.6 6.9 91 0.7 CALM 0 0 0 0 1009.4 1009.4 0.0
28/10:30pm 8.4 7.6 6.4 87 0.9 CALM 0 0 0 0 1010.0 1010.0 0.0
28/10:00pm 8.6 7.7 6.1 84 1.1 CALM 0 0 0 0 1010.1 1010.1 0.0
28/09:30pm 9.2 8.3 5.9 80 1.5 CALM 0 0 0 0 1010.2 1010.2 0.0
28/09:00pm 9.9 9.0 6.1 77 1.8 CALM 0 0 0 0 1010.5 1010.5 0.0
28/08:30pm 11.4 10.5 6.1 70 2.5 CALM 0 0 0 0 1010.6 1010.6 0.0
28/08:00pm 11.8 10.8 5.7 66 2.9 CALM 0 0 0 0 1010.7 1010.7 0.0
28/07:30pm 13.1 11.8 6.0 62 3.4 NW 2 6 1 3 1010.7 1010.7 0.0
28/07:00pm 14.2 12.0 5.3 55 4.2 NNE 6 9 3 5 1010.4 1010.4 0.0
28/06:30pm 15.0 12.1 4.7 50 4.8 E 9 13 5 7 1010.1 1010.1 0.0
28/06:00pm 15.8 11.8 5.1 49 5.1 ENE 15 20 8 11 1009.9 1009.9 0.0
28/05:30pm 17.0 12.9 6.2 49 5.3 ENE 17 24 9 13 1009.9 1009.9 0.0
28/05:00pm 18.0 14.3 6.2 46 5.8 ENE 15 20 8 11 1009.9 1009.9 0.0
28/04:30pm 18.9 14.1 5.7 42 6.5 ENE 20 28 11 15 1009.7 1009.7 0.0
28/04:00pm 19.9 15.4 5.9 40 7.0 ENE 19 26 10 14 1009.7 1009.7 0.0
28/03:30pm 20.6 16.5 2.4 30 8.5 NNE 13 20 7 11 1009.9 1009.9 0.0
28/03:00pm 20.4 16.0 2.7 31 8.3 NNE 15 24 8 13 1010.4 1010.4 0.0
28/02:30pm 20.4 16.4 2.7 31 8.3 N 13 22 7 12 1010.9 1010.9 0.0
28/02:00pm 20.8 16.1 3.1 31 8.4 NNE 17 28 9 15 1011.3 1011.3 0.0
28/01:30pm 20.4 16.2 1.8 29 8.6 NE 13 20 7 11 1011.8 1011.8 0.0
28/01:00pm 20.0 16.0 2.8 32 8.1 NNE 13 22 7 12 1012.3 1012.3 0.0
28/12:30pm 20.1 16.4 4.6 36 7.5 NNW 13 20 7 11 1012.6 1012.6 0.0
28/12:00pm 18.5 14.7 1.9 33 7.6 WNW 11 15 6 8 1013.0 1013.0 0.0
28/11:30am 19.1 16.1 2.0 32 7.8 SSW 7 11 4 6 1013.3 1013.3 0.0
28/11:00am 18.4 15.4 1.9 33 7.5 WNW 7 11 4 6 1013.7 1013.7 0.0
28/10:30am 18.2 15.4 3.3 37 7.0 E 7 11 4 6 1013.9 1013.9 0.0
28/10:00am 17.6 14.1 3.5 39 6.6 SE 11 17 6 9 1014.2 1014.2 0.0
28/09:30am 16.5 14.1 4.2 44 5.8 SSW 6 15 3 8 1014.4 1014.4 0.0
28/09:00am 15.3 12.7 4.4 48 5.1 SSW 7 11 4 6 1014.7 1014.7 0.0
28/08:30am 13.7 11.3 5.1 56 4.0 SSE 7 11 4 6 1014.7 1014.7 0.0
28/08:00am 12.5 10.9 4.7 59 3.6 SSE 2 6 1 3 1014.9 1014.9 0.0
28/07:30am 10.8 9.6 4.7 66 2.8 CALM 0 0 0 0 1014.9 1014.9 0.0
28/07:00am 8.7 7.8 6.2 84 1.1 CALM 0 0 0 0 1014.8 1014.8 0.0
28/06:30am 5.3 4.0 4.0 91 0.6 CALM 0 0 0 0 1014.4 1014.4 0.0
28/06:00am 3.5 1.9 2.6 94 0.4 CALM 0 0 0 0 1014.2 1014.2 0.0
28/05:30am 4.1 1.5 3.2 94 0.4 SE 6 7 3 4 1014.0 1014.0 0.0
28/05:00am 4.0 1.1 2.7 91 0.5 ESE 7 9 4 5 1013.7 1013.7 0.0
28/04:30am 4.0 0.8 3.0 93 0.4 SE 9 15 5 8 1013.6 1013.6 0.0
28/04:00am 3.9 0.9 2.1 88 0.7 SE 7 11 4 6 1013.5 1013.5 0.0
28/03:30am 4.8 3.2 2.5 85 0.9 CALM 0 0 0 0 1013.5 1013.5 0.0
28/03:00am 5.2 3.8 3.4 88 0.8 CALM 0 0 0 0 1013.5 1013.5 0.0
28/02:30am 5.3 3.5 3.2 86 0.9 S 2 6 1 3 1013.4 1013.4 0.0
28/02:00am 5.4 2.7 2.9 84 1.0 SSE 6 9 3 5 1013.3 1013.3 0.0
28/01:30am 6.2 4.8 3.7 84 1.1 CALM 0 0 0 0 1013.4 1013.4 0.0
28/01:00am 6.3 4.8 2.8 78 1.5 CALM 0 0 0 0 1013.4 1013.4 0.0
28/12:30am 7.0 5.5 3.1 76 1.6 CALM 0 0 0 0 1013.4 1013.4 0.0
28/12:00am 7.7 6.1 2.4 69 2.2 CALM 0 0 0 0 1013.5 1013.5 0.0
 
Date/Time
EST
Temp
°C
App
Temp
°C
Dew
Point
°C
Rel
Hum
%
Delta-T
°C
Wind Press
QNH
hPa
Press
MSL
hPa
Rain since
9am
mm
Dir  Spd
km/h
Gust
km/h
Spd
kts
Gust
kts
27/11:30pm 9.7 7.2 1.8 58 3.3 E 4 9 2 5 1013.4 1013.4 0.0
27/11:00pm 10.0 6.9 1.6 56 3.5 SSW 7 11 4 6 1013.4 1013.4 0.0
27/10:30pm 11.2 8.1 1.5 51 4.1 SE 7 11 4 6 1013.3 1013.3 0.0
27/10:00pm 10.8 7.3 1.1 51 4.0 SSE 9 13 5 7 1013.3 1013.3 0.0
27/09:30pm 12.6 8.8 1.6 47 4.7 S 11 20 6 11 1013.1 1013.1 0.0
27/09:00pm 12.4 7.8 1.4 47 4.7 SW 15 20 8 11 1012.7 1012.7 0.0
27/08:30pm 13.0 8.8 1.4 45 5.0 SW 13 20 7 11 1012.5 1012.5 0.0
27/08:00pm 13.0 7.6 1.4 45 5.0 SW 19 24 10 13 1012.3 1012.3 0.0
27/07:30pm 13.4 8.1 1.7 45 5.1 WSW 19 26 10 14 1012.0 1012.0 0.0
27/07:00pm 13.7 8.7 1.4 43 5.3 WSW 17 20 9 11 1011.7 1011.7 0.0
27/06:30pm 14.3 8.8 0.9 40 5.8 WSW 19 24 10 13 1011.4 1011.4 0.0

Latest Capital City Observations: Canberra | Sydney | Melbourne | Brisbane | Adelaide | Perth | Hobart | Darwin

Other Formats:

Comma delimited format used in spreadsheet applications
http://www.bom.gov.au/fwo/IDN60901/IDN60901.94755.axf

JavaScript Object Notation format (JSON) in row-major order
http://www.bom.gov.au/fwo/IDN60901/IDN60901.94755.json